KQPB

2017-11-06 13:30:06Z

Plaintext report →

Temperature
High32.7 °C90.9 °F
Current29.4 °C84.9 °F
Low27.8 °C82.0 °F
Feels Like30.1 °C86.1 °F
Dewpoint17.2 °C63.0 °F
Winds
Speed and Direction3.2 m/s7.2 mi/h 6 kn34 °
Gust0.0 m/s0.00 mi/h 0 kn
SquallUnavailable
Pressure and Humidity
Pressure At Field Level1013.1 mb29.9 in
Pressure At Sea Level1015.8 mb30.0 in
Pressure Trend-0.3 mb -0.0 in
Pressure Tendency 5
Humidity49 %

Station Alarms & Warnings:

Ceilometer Alarms / Warnings:

Ceilometer Data Missing!
Historical

Additional Information:

  METAR KQPB 061330Z AUTO 03006KT NCD 29/17 A2992 RMK AO2 SLP158 10327
  20278 55003 PWINO $=    
Cloud Cover
Layer 1 Undetected
Layer 2 Undetected
Layer 3 Undetected
Winds
2-minute Winds
Minimum1.1 m/s2.46 mi/h 2 kn 6 °
Average2.7 m/s6.04 mi/h 5 kn25 °
Maximum4.0 m/s8.95 mi/h 7 kn47 °
10-minute Winds
Minimum1.1 m/s2.46 mi/h 2 kn343 °
Average2.8 m/s6.26 mi/h 5 kn25 °
Maximum4.3 m/s9.62 mi/h 8 kn50 °
Precipitation
IntensityUnavailable
Rainfall
1-hour Total0.00 mm0.00 in
3-hour Total0.00 mm0.00 in
6-hour Total0.00 mm0.00 in
24-hour Total0.00 mm0.00 in
Precipitation
1-hour TotalUnavailable
3-hour TotalUnavailable
6-hour TotalUnavailable
24-hour TotalUnavailable